Olathe, KS

7:41 AM CST on December 10, 2016 (GMT -0600)
Northgate Estates | | Change Station

Elev 970 ft 38.89 °N, 94.82 °W | Updated 1 minute ago

Overcast
Overcast
27.1 °F
Feels Like 27 °F
N
0.0
Wind Variable Wind from East
Gusts 0.0 mph

Today
High -- | Low -- °F
--% Chance of Precip.
Yesterday
High -- | Low -- °F
Precip. -- in
Pressure 30.47 in
Visibility 10.0 miles
Clouds Overcast 4400 ft
Windchill 27 °F
Dew Point 19 °F
Humidity 71%
Rainfall 0.00 in
Snow Depth Not available.
7:27 AM 4:57 PM
Waxing Gibbous, 83% visible
METAR KOJC 101253Z 12005KT 10SM OVC044 M04/M09 A3043 RMK AO2 SLP316 T10391094
Pressure 30.47 in
Visibility 10.0 miles
Clouds Overcast 4400 ft
Windchill 27 °F
Dew Point 19 °F
Humidity 71%
Rainfall 0.00 in
Snow Depth Not available.
7:27 AM 4:57 PM
Waxing Gibbous, 83% visible
METAR KOJC 101253Z 12005KT 10SM OVC044 M04/M09 A3043 RMK AO2 SLP316 T10391094

10-Day Weather Forecast

Almanac

Astronomy

Dec. 10, 2016 Rise Set
Actual Time
Civil Twilight
Nautical Twilight
Astronomical Twilight
Moon
Length of Visible Light
Length of Day
Tomorrow will be .
, % of the Moon is Illuminated

Today's Extremes

State Highs State Lows

Community

WunderPhotos

Upload Photos

1,956,540 photos uploaded!

WunderBlog® & News

Nearby

Air Quality

  Air Quality AQ Index Pollutant
Not available.

Snow Depth

Station Depth Elevation

Earthquake Activity

City Distance Mag. Time & Date
Minimum magnitude displayed is 2.5.

Coastal Water Temperatures

Place Temperature

Stations

Nearby Weather Stations

Station Location Temp. Windchill Dew Point Humidity Wind Precip. Elev Updated Type
                   

Watches & Warnings

There are currently no watches in effect.